Time;durP1;ratioP1;P1;durP2;ratioP2;P2;SDS_P1;SDS_P2;PMS_P1;PMS_P2;Temp;Humidity;BMP_temperature;BMP_pressure;BME280_temperature;BME280_humidity;BME280_pressure;Samples;Min_cycle;Max_cycle;Signal;HPM_P1;HPM_P2
2023/12/12 05:00:27;;;;;;;0.90;0.80;;;6.10;97.30;;;;;;6073079;23;20408;-89
2023/12/12 05:02:52;;;;;;;4.10;1.30;;;6.10;97.30;;;;;;4980399;28;20735;-90
2023/12/12 05:05:18;;;;;;;0.90;0.80;;;6.10;97.30;;;;;;4978137;28;20243;-89
2023/12/12 05:07:43;;;;;;;0.90;0.80;;;6.10;97.30;;;;;;4974900;28;20185;-89
2023/12/12 05:10:09;;;;;;;1.10;1.00;;;6.20;97.30;;;;;;5011652;28;20685;-89
2023/12/12 05:12:34;;;;;;;1.17;1.07;;;6.20;97.30;;;;;;4997791;28;20213;-89
2023/12/12 05:15:00;;;;;;;1.00;0.90;;;6.20;97.30;;;;;;4976627;28;20207;-90
2023/12/12 05:17:26;;;;;;;1.00;0.90;;;6.20;97.30;;;;;;4976537;28;20663;-89
2023/12/12 05:19:51;;;;;;;1.00;0.90;;;6.20;97.30;;;;;;4971548;28;20585;-89
2023/12/12 05:22:17;;;;;;;1.10;1.00;;;6.10;97.30;;;;;;4975302;28;20246;-87
2023/12/12 05:24:43;;;;;;;0.83;0.73;;;6.10;97.30;;;;;;4974527;28;20471;-86
2023/12/12 05:27:09;;;;;;;1.00;0.90;;;6.10;97.30;;;;;;4977873;28;20293;-89
2023/12/12 05:29:35;;;;;;;1.40;1.30;;;6.10;97.30;;;;;;4978185;28;20197;-89
2023/12/12 05:32:01;;;;;;;2.20;1.50;;;6.00;97.30;;;;;;4996833;28;20440;-88
2023/12/12 05:34:27;;;;;;;0.83;0.73;;;6.00;97.30;;;;;;4995905;28;20456;-88
2023/12/12 05:36:52;;;;;;;1.33;1.23;;;6.00;97.30;;;;;;4979307;28;20217;-89
2023/12/12 05:39:18;;;;;;;1.60;1.50;;;6.00;97.30;;;;;;4980105;28;20212;-89
2023/12/12 05:41:43;;;;;;;1.60;1.50;;;6.00;97.30;;;;;;4978422;28;20695;-89
2023/12/12 05:44:08;;;;;;;1.40;1.30;;;6.00;97.30;;;;;;4979298;28;20190;-89
2023/12/12 05:46:35;;;;;;;2.20;1.77;;;6.00;97.30;;;;;;4979418;28;20182;-89
2023/12/12 05:49:00;;;;;;;1.87;1.30;;;6.00;97.30;;;;;;4971370;28;20178;-88
2023/12/12 05:51:26;;;;;;;7.13;1.53;;;6.00;97.30;;;;;;4979140;28;20856;-88
2023/12/12 05:53:52;;;;;;;1.60;1.50;;;6.00;97.30;;;;;;4976713;28;20237;-89
2023/12/12 05:56:18;;;;;;;1.67;1.50;;;6.00;97.30;;;;;;4978973;28;20494;-88
2023/12/12 05:58:44;;;;;;;1.10;1.00;;;5.90;97.30;;;;;;4996670;28;20188;-89
2023/12/12 06:01:10;;;;;;;1.50;1.40;;;5.90;97.30;;;;;;4975232;28;20489;-86
2023/12/12 06:03:35;;;;;;;1.73;1.63;;;6.00;97.30;;;;;;4976208;28;20437;-89
2023/12/12 06:06:07;;;;;;;1.70;1.63;;;6.00;97.30;;;;;;4974635;28;20217;-90
2023/12/12 06:08:33;;;;;;;1.43;1.33;;;6.00;97.30;;;;;;4974465;28;20183;-89
2023/12/12 06:10:59;;;;;;;1.20;1.10;;;6.10;97.30;;;;;;4982754;28;20740;-89
2023/12/12 06:13:24;;;;;;;1.33;1.23;;;6.10;97.30;;;;;;4974868;28;20258;-90
2023/12/12 06:15:50;;;;;;;4.30;2.40;;;6.10;97.30;;;;;;4968526;28;20282;-90
2023/12/12 06:18:15;;;;;;;1.10;1.00;;;6.10;97.30;;;;;;4974827;28;20217;-89
2023/12/12 06:20:41;;;;;;;1.07;0.97;;;6.10;97.30;;;;;;4974683;28;20207;-89
2023/12/12 06:23:08;;;;;;;2.20;1.13;;;6.00;97.30;;;;;;4974813;28;20270;-88
2023/12/12 06:25:34;;;;;;;1.00;0.90;;;6.00;97.30;;;;;;4972638;28;20611;-89
2023/12/12 06:27:59;;;;;;;1.43;1.33;;;6.00;97.30;;;;;;4972116;28;20697;-89
2023/12/12 06:30:25;;;;;;;5.47;1.97;;;6.00;97.30;;;;;;4973739;28;20551;-89
2023/12/12 06:32:50;;;;;;;1.00;0.90;;;6.00;97.30;;;;;;4974541;28;20190;-89
2023/12/12 06:35:16;;;;;;;1.37;1.30;;;6.00;97.30;;;;;;4974909;28;20178;-89
2023/12/12 06:37:42;;;;;;;1.40;1.30;;;6.00;97.30;;;;;;4972200;28;20656;-89
2023/12/12 06:40:09;;;;;;;1.70;1.57;;;6.00;97.30;;;;;;4974600;28;20252;-90
2023/12/12 06:42:35;;;;;;;1.57;1.07;;;5.90;97.30;;;;;;4973978;28;20468;-90
2023/12/12 06:45:01;;;;;;;4.20;1.37;;;5.90;97.30;;;;;;4975388;28;20547;-90
2023/12/12 06:47:26;;;;;;;1.43;1.33;;;6.00;97.30;;;;;;4974283;28;20474;-89
2023/12/12 06:49:52;;;;;;;1.53;1.53;;;6.00;97.30;;;;;;4972992;28;20190;-88
2023/12/12 06:52:17;;;;;;;1.43;1.33;;;6.00;97.30;;;;;;4974118;28;20207;-88
2023/12/12 06:54:43;;;;;;;1.17;1.10;;;6.10;97.30;;;;;;4974131;28;20638;-90
2023/12/12 06:57:08;;;;;;;1.63;1.53;;;6.10;97.30;;;;;;4973759;28;20194;-90
2023/12/12 06:59:33;;;;;;;1.00;0.90;;;6.20;97.30;;;;;;4973584;28;20194;-91
2023/12/12 07:01:59;;;;;;;2.23;2.03;;;6.20;97.30;;;;;;4973809;28;20234;-90
2023/12/12 07:04:24;;;;;;;1.20;1.10;;;6.30;97.30;;;;;;4974172;28;20206;-89
2023/12/12 07:06:50;;;;;;;4.50;1.60;;;6.30;97.30;;;;;;4973945;28;20576;-89
2023/12/12 07:09:15;;;;;;;1.83;1.73;;;6.30;97.30;;;;;;4973083;28;20198;-89
2023/12/12 07:11:41;;;;;;;5.37;2.93;;;6.30;97.30;;;;;;4973638;28;20213;-89
2023/12/12 07:14:08;;;;;;;1.70;1.60;;;6.30;97.30;;;;;;4974322;28;20572;-88
2023/12/12 07:16:33;;;;;;;5.47;3.17;;;6.30;97.30;;;;;;4967655;28;20171;-89
2023/12/12 07:18:59;;;;;;;1.30;1.20;;;6.40;97.30;;;;;;4971893;28;20442;-89
2023/12/12 07:21:24;;;;;;;1.10;1.00;;;6.40;97.30;;;;;;4974865;28;20310;-90
2023/12/12 07:23:51;;;;;;;1.40;1.30;;;6.40;97.30;;;;;;4973846;28;20183;-89
2023/12/12 07:26:18;;;;;;;1.40;1.30;;;6.50;97.30;;;;;;4975203;28;20205;-89
2023/12/12 07:28:43;;;;;;;1.97;1.43;;;6.60;97.30;;;;;;4971437;28;20980;-89
2023/12/12 07:31:10;;;;;;;3.33;2.03;;;6.60;97.30;;;;;;4973194;28;20533;-89
2023/12/12 07:33:36;;;;;;;3.33;1.57;;;6.70;97.30;;;;;;4968055;28;20187;-89
2023/12/12 07:36:02;;;;;;;2.27;2.07;;;6.70;97.30;;;;;;4974446;28;20426;-89
2023/12/12 07:38:27;;;;;;;1.53;1.43;;;6.80;97.30;;;;;;4961533;28;20501;-90
2023/12/12 07:40:53;;;;;;;2.17;1.43;;;6.80;97.30;;;;;;4961811;28;20210;-88
2023/12/12 07:43:19;;;;;;;1.20;1.10;;;6.80;97.30;;;;;;4965148;28;20205;-89
2023/12/12 07:45:44;;;;;;;1.40;1.33;;;6.90;97.30;;;;;;4966671;28;20253;-90
2023/12/12 07:48:10;;;;;;;2.30;1.77;;;6.90;97.30;;;;;;4966019;28;20579;-90
2023/12/12 07:50:36;;;;;;;1.10;1.00;;;7.00;97.30;;;;;;4964392;28;20195;-90
2023/12/12 07:53:04;;;;;;;1.17;0.97;;;7.00;97.30;;;;;;4964546;28;20209;-89
2023/12/12 07:55:30;;;;;;;1.30;1.20;;;7.00;97.30;;;;;;4965194;28;20481;-90
2023/12/12 07:57:55;;;;;;;0.97;0.87;;;7.10;97.30;;;;;;4964321;28;20425;-90
2023/12/12 08:00:21;;;;;;;1.13;1.03;;;7.10;97.30;;;;;;4964200;28;20675;-87
2023/12/12 08:02:46;;;;;;;1.10;1.00;;;7.10;97.30;;;;;;4966177;28;20234;-86
2023/12/12 08:05:12;;;;;;;2.60;1.73;;;7.10;97.30;;;;;;4964587;28;20576;-88
2023/12/12 08:07:38;;;;;;;2.43;2.23;;;7.10;97.30;;;;;;4964839;28;20582;-86
2023/12/12 08:10:05;;;;;;;5.77;2.00;;;7.10;97.30;;;;;;4980358;28;20461;-85
2023/12/12 08:12:31;;;;;;;1.57;1.47;;;7.10;97.30;;;;;;4965912;28;20903;-86
2023/12/12 08:14:57;;;;;;;34.27;3.00;;;7.10;97.30;;;;;;4980609;28;20508;-87
2023/12/12 08:17:22;;;;;;;1.30;1.20;;;7.10;97.30;;;;;;4964311;28;20278;-87
2023/12/12 08:19:48;;;;;;;1.13;1.03;;;7.10;97.30;;;;;;4965393;28;20182;-85
2023/12/12 08:22:14;;;;;;;1.17;1.07;;;7.20;97.30;;;;;;4965189;28;20301;-84
2023/12/12 08:24:39;;;;;;;1.40;1.20;;;7.20;97.30;;;;;;4965151;28;20305;-84
2023/12/12 08:27:06;;;;;;;1.40;1.37;;;7.20;97.30;;;;;;4964929;28;20479;-86
2023/12/12 08:29:31;;;;;;;1.67;1.57;;;7.20;97.30;;;;;;4964868;28;20179;-85
2023/12/12 08:31:57;;;;;;;13.60;2.10;;;7.20;97.30;;;;;;4980910;28;20457;-87
2023/12/12 08:34:23;;;;;;;2.97;1.63;;;7.20;97.30;;;;;;4964190;28;20204;-88
2023/12/12 08:36:49;;;;;;;1.87;1.77;;;7.20;97.30;;;;;;4965131;28;20266;-86
2023/12/12 08:39:14;;;;;;;1.70;1.33;;;7.20;97.30;;;;;;4963398;28;20481;-86
2023/12/12 08:41:40;;;;;;;2.30;2.10;;;7.30;97.30;;;;;;4961712;28;20217;-88
2023/12/12 08:44:05;;;;;;;1.13;1.03;;;7.30;97.30;;;;;;4964702;28;20257;-87
2023/12/12 08:46:31;;;;;;;1.30;1.20;;;7.30;97.30;;;;;;4964819;28;20178;-87
2023/12/12 08:48:57;;;;;;;16.83;3.07;;;7.40;97.30;;;;;;4964836;28;21256;-86
2023/12/12 08:51:24;;;;;;;2.40;1.80;;;7.40;97.30;;;;;;4963128;28;20198;-87
2023/12/12 08:53:51;;;;;;;14.27;3.60;;;7.40;97.30;;;;;;4966432;28;20762;-87
2023/12/12 08:56:16;;;;;;;2.37;2.20;;;7.50;97.30;;;;;;4965911;28;20944;-87
2023/12/12 08:58:51;;;;;;;6.90;1.63;;;7.50;97.30;;;;;;4964808;28;20429;-88
2023/12/12 09:01:17;;;;;;;1.43;1.33;;;7.50;97.30;;;;;;4963779;28;20289;-87
2023/12/12 09:03:43;;;;;;;2.63;1.47;;;7.50;97.30;;;;;;4967087;28;20568;-87
2023/12/12 09:06:08;;;;;;;2.53;2.33;;;7.50;97.30;;;;;;4966226;28;20552;-86
2023/12/12 09:08:34;;;;;;;1.00;0.90;;;7.50;97.30;;;;;;4966338;28;20191;-87
2023/12/12 09:10:59;;;;;;;2.80;2.10;;;7.60;97.30;;;;;;4965519;28;20199;-87
2023/12/12 09:13:26;;;;;;;2.50;1.83;;;7.50;97.30;;;;;;4964748;28;20183;-86
2023/12/12 09:15:51;;;;;;;1.37;1.27;;;7.60;97.30;;;;;;4966119;28;20211;-87
2023/12/12 09:18:17;;;;;;;1.20;1.10;;;7.60;97.30;;;;;;4965144;28;20963;-87
2023/12/12 09:20:42;;;;;;;2.93;1.93;;;7.60;97.30;;;;;;4964683;28;20707;-87
2023/12/12 09:23:08;;;;;;;1.83;1.73;;;7.60;97.30;;;;;;4965785;28;20205;-87
2023/12/12 09:25:34;;;;;;;3.13;2.93;;;7.70;97.30;;;;;;4964312;28;20308;-87
2023/12/12 09:27:59;;;;;;;1.00;0.90;;;7.70;97.30;;;;;;4964221;28;20241;-87
2023/12/12 09:30:25;;;;;;;2.17;2.00;;;7.70;97.30;;;;;;4964351;28;20233;-88
2023/12/12 09:32:50;;;;;;;1.80;1.30;;;7.80;97.30;;;;;;4963801;28;20197;-87
2023/12/12 09:35:16;;;;;;;7.57;2.60;;;7.80;97.30;;;;;;4964490;28;20205;-87
2023/12/12 09:37:42;;;;;;;1.43;1.17;;;7.80;97.30;;;;;;4965517;28;20185;-88
2023/12/12 09:40:09;;;;;;;2.50;2.03;;;7.90;97.30;;;;;;4966629;28;20453;-88
2023/12/12 09:42:35;;;;;;;2.20;1.63;;;7.90;97.30;;;;;;4965032;28;20265;-87
2023/12/12 09:45:03;;;;;;;8.13;2.50;;;8.00;97.30;;;;;;4964900;28;20477;-87
2023/12/12 09:47:30;;;;;;;3.27;1.27;;;8.00;97.30;;;;;;4965246;28;20178;-89
2023/12/12 09:49:58;;;;;;;1.93;1.80;;;8.00;97.30;;;;;;4965488;28;20457;-86
2023/12/12 09:52:25;;;;;;;1.50;1.40;;;8.10;97.30;;;;;;4964063;28;20492;-86
2023/12/12 09:54:52;;;;;;;5.20;1.80;;;8.10;97.30;;;;;;4965189;28;20512;-86
2023/12/12 09:57:19;;;;;;;2.07;1.10;;;8.10;97.30;;;;;;4965905;28;20418;-88
2023/12/12 09:59:44;;;;;;;2.20;1.40;;;8.20;97.30;;;;;;4965495;28;20929;-87
2023/12/12 10:02:23;;;;;;;1.50;1.40;;;8.20;97.30;;;;;;4965286;28;20468;-87
2023/12/12 10:04:51;;;;;;;1.30;1.20;;;8.30;97.30;;;;;;4964215;28;20274;-87
2023/12/12 10:07:19;;;;;;;2.10;1.97;;;8.30;97.30;;;;;;4965335;28;20513;-88
2023/12/12 10:09:46;;;;;;;1.00;0.90;;;8.40;97.30;;;;;;4964969;28;20430;-88
2023/12/12 10:12:11;;;;;;;1.40;1.30;;;8.40;97.30;;;;;;4968008;28;20449;-89
2023/12/12 10:14:39;;;;;;;1.03;1.00;;;8.50;97.30;;;;;;4971297;28;20421;-86
2023/12/12 10:17:05;;;;;;;1.30;1.20;;;8.50;97.30;;;;;;4971120;28;20330;-87
2023/12/12 10:19:31;;;;;;;5.60;1.87;;;8.60;97.30;;;;;;4970355;28;20438;-88
2023/12/12 10:22:10;;;;;;;1.23;1.13;;;8.70;97.30;;;;;;4968806;28;20437;-87
2023/12/12 10:24:36;;;;;;;1.13;1.10;;;8.70;97.30;;;;;;4969826;28;20675;-87
2023/12/12 10:27:05;;;;;;;1.93;1.50;;;8.80;97.30;;;;;;4969641;28;20898;-90
2023/12/12 10:29:32;;;;;;;5.53;1.37;;;8.80;97.30;;;;;;4969089;28;21140;-89
2023/12/12 10:31:59;;;;;;;1.83;1.73;;;8.90;97.30;;;;;;4968236;28;20445;-90
2023/12/12 10:34:27;;;;;;;5.13;3.00;;;8.90;97.30;;;;;;4969359;28;20431;-89
2023/12/12 10:36:53;;;;;;;1.77;1.67;;;8.90;97.30;;;;;;4968712;28;20437;-90
2023/12/12 10:39:18;;;;;;;1.47;1.37;;;9.00;97.30;;;;;;4971920;28;20473;-90
2023/12/12 10:41:51;;;;;;;2.80;2.60;;;9.00;97.30;;;;;;4970610;28;20440;-89
2023/12/12 10:44:21;;;;;;;6.37;2.27;;;8.90;97.30;;;;;;4970401;28;20177;-90
2023/12/12 10:46:51;;;;;;;2.93;2.00;;;8.90;97.30;;;;;;4970923;28;20421;-90
2023/12/12 10:49:17;;;;;;;3.77;1.40;;;9.00;97.30;;;;;;4971324;28;20457;-91
2023/12/12 10:51:44;;;;;;;3.67;2.63;;;9.10;97.30;;;;;;4970164;28;20476;-90
2023/12/12 10:54:11;;;;;;;3.70;1.80;;;9.10;97.30;;;;;;4969987;28;20426;-88
2023/12/12 10:56:37;;;;;;;11.20;2.40;;;9.20;97.30;;;;;;4968400;28;20721;-89
2023/12/12 10:59:05;;;;;;;1.67;1.57;;;9.30;97.30;;;;;;4969355;28;20422;-89
2023/12/12 11:01:33;;;;;;;1.27;1.17;;;9.40;97.30;;;;;;4967404;28;20573;-90
2023/12/12 11:04:05;;;;;;;1.73;1.10;;;9.50;97.30;;;;;;4969141;28;20448;-91
2023/12/12 11:06:32;;;;;;;1.30;1.20;;;9.60;97.30;;;;;;4970499;28;20554;-89
2023/12/12 11:08:58;;;;;;;2.70;1.30;;;9.80;97.30;;;;;;4970787;28;20509;-90
2023/12/12 11:11:25;;;;;;;1.43;1.40;;;10.10;97.30;;;;;;4970857;28;20509;-90
2023/12/12 11:13:51;;;;;;;8.43;2.40;;;10.30;97.30;;;;;;4969957;28;20192;-90
2023/12/12 11:16:17;;;;;;;2.20;1.63;;;10.30;97.30;;;;;;4969816;28;20469;-90
2023/12/12 11:18:43;;;;;;;0.90;0.90;;;10.10;97.30;;;;;;4970145;28;20550;-90
2023/12/12 11:21:41;;;;;;;1.27;1.23;;;10.00;97.30;;;;;;4970781;28;20593;-89
2023/12/12 11:24:07;;;;;;;1.57;1.47;;;9.90;97.30;;;;;;4967120;28;20226;-90
2023/12/12 11:26:34;;;;;;;2.60;1.27;;;9.90;97.30;;;;;;4970279;28;20492;-90
2023/12/12 11:29:00;;;;;;;11.50;3.83;;;9.80;97.30;;;;;;4968910;28;20190;-89
2023/12/12 11:31:27;;;;;;;1.30;1.20;;;9.80;97.30;;;;;;4970978;28;20437;-87
2023/12/12 11:34:09;;;;;;;1.73;1.63;;;9.80;97.30;;;;;;4972340;28;20263;-89
2023/12/12 11:36:57;;;;;;;1.20;1.10;;;9.70;97.30;;;;;;4975686;28;20569;-88
2023/12/12 11:39:29;;;;;;;1.87;1.77;;;9.70;97.30;;;;;;4972429;28;20425;-88
2023/12/12 11:41:56;;;;;;;1.10;1.00;;;9.60;97.30;;;;;;4970201;28;20438;-88
2023/12/12 11:44:21;;;;;;;1.00;0.90;;;9.60;97.30;;;;;;4970205;28;20491;-87
2023/12/12 11:46:47;;;;;;;1.10;1.00;;;9.60;97.30;;;;;;4969932;28;20568;-87
2023/12/12 11:49:23;;;;;;;7.90;2.60;;;9.50;97.30;;;;;;4968615;28;20684;-87
2023/12/12 11:51:50;;;;;;;2.37;1.40;;;9.50;97.30;;;;;;4969339;28;20206;-87
2023/12/12 11:54:23;;;;;;;3.20;1.50;;;9.60;97.30;;;;;;4969402;28;20425;-87
2023/12/12 11:56:55;;;;;;;1.63;1.47;;;9.60;97.30;;;;;;4969734;28;20472;-89
2023/12/12 11:59:22;;;;;;;1.50;1.40;;;9.60;97.30;;;;;;4969023;28;20422;-88
2023/12/12 12:01:48;;;;;;;3.77;1.53;;;9.70;97.30;;;;;;4980175;28;20475;-88
2023/12/12 12:04:13;;;;;;;1.17;1.10;;;9.70;97.30;;;;;;4972017;28;21148;-90
2023/12/12 12:06:39;;;;;;;6.30;1.90;;;9.70;97.30;;;;;;4972409;28;20417;-89
2023/12/12 12:09:07;;;;;;;4.20;3.80;;;9.80;97.30;;;;;;4972840;28;20181;-89
2023/12/12 12:11:40;;;;;;;1.63;1.53;;;9.80;97.30;;;;;;4989466;28;20206;-90
2023/12/12 12:14:06;;;;;;;6.10;3.17;;;9.90;97.30;;;;;;4972494;28;20985;-89
2023/12/12 12:16:32;;;;;;;2.30;1.83;;;9.90;97.30;;;;;;4973225;28;21334;-89
2023/12/12 12:18:58;;;;;;;5.70;3.07;;;9.90;97.30;;;;;;4971871;28;20421;-90
2023/12/12 12:21:25;;;;;;;1.70;1.63;;;9.80;97.30;;;;;;4971375;28;20456;-89
2023/12/12 12:23:54;;;;;;;0.97;0.87;;;9.80;97.30;;;;;;4972023;28;20318;-88
2023/12/12 12:26:20;;;;;;;2.97;2.83;;;9.90;97.30;;;;;;4990378;28;20468;-89
2023/12/12 12:28:45;;;;;;;6.30;3.80;;;9.80;97.30;;;;;;4972560;28;20845;-90
2023/12/12 12:31:11;;;;;;;4.33;1.93;;;9.80;97.30;;;;;;4988639;28;20205;-89
2023/12/12 12:33:38;;;;;;;2.70;1.60;;;9.80;97.30;;;;;;4970220;28;20184;-89
2023/12/12 12:36:04;;;;;;;17.73;9.30;;;9.70;97.30;;;;;;4971204;28;20181;-89
2023/12/12 12:38:34;;;;;;;14.23;6.10;;;9.70;97.30;;;;;;4970236;28;21464;-89
2023/12/12 12:40:59;;;;;;;9.60;3.30;;;9.70;97.30;;;;;;4970083;28;20472;-89
2023/12/12 12:43:26;;;;;;;1.23;1.20;;;9.70;97.30;;;;;;4970467;28;20445;-90
2023/12/12 12:45:52;;;;;;;1.00;0.90;;;9.70;97.30;;;;;;4969816;28;20209;-90
2023/12/12 12:48:18;;;;;;;2.20;2.00;;;9.70;97.30;;;;;;4970510;28;20416;-89
2023/12/12 12:50:46;;;;;;;1.97;1.87;;;9.80;97.30;;;;;;4971473;28;20428;-89
2023/12/12 12:53:12;;;;;;;1.83;1.73;;;9.80;97.30;;;;;;4971284;28;20174;-89
2023/12/12 12:55:40;;;;;;;5.50;2.13;;;9.80;97.30;;;;;;4970893;28;20431;-88
2023/12/12 12:58:07;;;;;;;1.07;0.97;;;9.80;97.30;;;;;;4969118;28;20688;-89
2023/12/12 13:00:32;;;;;;;1.17;1.07;;;9.80;97.30;;;;;;4969293;28;20441;-89
2023/12/12 13:02:58;;;;;;;1.90;1.83;;;9.80;97.30;;;;;;4969606;28;20556;-88
2023/12/12 13:05:26;;;;;;;1.37;1.27;;;9.80;97.30;;;;;;4970394;28;20702;-89
2023/12/12 13:07:52;;;;;;;7.20;3.57;;;9.90;97.30;;;;;;4971579;28;20228;-89
2023/12/12 13:10:18;;;;;;;1.80;1.43;;;9.90;97.30;;;;;;4972108;28;20479;-89
2023/12/12 13:12:44;;;;;;;4.13;1.37;;;9.90;97.30;;;;;;4975067;28;20441;-88
2023/12/12 13:15:10;;;;;;;4.40;2.33;;;10.00;97.30;;;;;;4989230;28;20193;-90
2023/12/12 13:17:36;;;;;;;1.63;1.53;;;10.00;97.30;;;;;;4967826;28;20177;-88
2023/12/12 13:20:11;;;;;;;1.70;1.63;;;10.10;97.30;;;;;;4972434;28;20417;-90
2023/12/12 13:22:41;;;;;;;1.27;1.17;;;10.20;97.30;;;;;;4974696;28;20444;-89
2023/12/12 13:25:09;;;;;;;2.30;2.10;;;10.40;97.30;;;;;;4974038;28;20453;-88
2023/12/12 13:27:35;;;;;;;2.40;1.53;;;10.90;97.30;;;;;;4994607;28;20460;-88
2023/12/12 13:30:00;;;;;;;14.93;1.43;;;11.60;97.30;;;;;;4990809;28;20420;-88
2023/12/12 13:32:26;;;;;;;1.10;1.00;;;12.40;97.30;;;;;;4988959;28;20197;-88
2023/12/12 13:34:52;;;;;;;1.50;1.40;;;13.00;95.30;;;;;;4986649;28;20185;-90
2023/12/12 13:37:18;;;;;;;1.43;1.33;;;13.40;94.10;;;;;;4986136;28;20174;-88
2023/12/12 13:39:44;;;;;;;2.13;1.40;;;13.50;93.10;;;;;;4985862;28;20417;-89
2023/12/12 13:42:09;;;;;;;6.10;1.80;;;13.70;92.40;;;;;;4985847;28;20206;-88
2023/12/12 13:44:35;;;;;;;1.13;1.03;;;14.00;91.60;;;;;;4985808;28;20205;-90
2023/12/12 13:47:00;;;;;;;1.20;1.10;;;14.20;91.00;;;;;;4977427;28;20178;-90
2023/12/12 13:49:26;;;;;;;1.00;0.90;;;14.30;89.80;;;;;;4989417;28;20284;-90
2023/12/12 13:51:53;;;;;;;1.00;0.90;;;14.30;88.60;;;;;;4989449;28;20212;-89
2023/12/12 13:54:21;;;;;;;1.07;1.03;;;14.10;89.00;;;;;;5007347;28;20185;-89
2023/12/12 13:56:47;;;;;;;1.10;1.00;;;13.70;89.80;;;;;;4999552;28;20485;-90
2023/12/12 13:59:12;;;;;;;1.20;1.10;;;13.10;90.60;;;;;;4983564;28;20986;-90
2023/12/12 14:01:38;;;;;;;3.23;1.67;;;12.60;91.70;;;;;;4997889;28;20688;-90
2023/12/12 14:04:05;;;;;;;1.47;1.37;;;12.20;93.00;;;;;;4974916;28;20190;-90
2023/12/12 14:06:31;;;;;;;1.37;1.27;;;11.70;93.80;;;;;;4981271;28;20205;-89
2023/12/12 14:08:56;;;;;;;5.30;1.60;;;11.40;94.50;;;;;;4978670;28;20962;-88
2023/12/12 14:11:24;;;;;;;1.10;1.00;;;11.20;95.80;;;;;;4981047;28;20288;-89
2023/12/12 14:13:51;;;;;;;3.33;2.03;;;11.10;96.80;;;;;;4980764;28;20232;-90
2023/12/12 14:16:16;;;;;;;2.00;1.60;;;11.30;97.30;;;;;;4980446;28;20522;-89
2023/12/12 14:18:42;;;;;;;1.00;0.90;;;11.60;97.30;;;;;;4980496;28;20436;-90
2023/12/12 14:21:10;;;;;;;1.27;1.23;;;11.90;96.70;;;;;;4972320;28;20680;-89
2023/12/12 14:23:35;;;;;;;1.87;1.30;;;12.10;96.10;;;;;;4980088;28;20439;-88
2023/12/12 14:26:01;;;;;;;8.10;2.03;;;11.90;96.00;;;;;;4979776;28;20468;-90
2023/12/12 14:28:26;;;;;;;25.43;1.83;;;11.60;96.30;;;;;;4993597;23;20189;-67
2023/12/12 14:30:52;;;;;;;2.40;1.10;;;11.40;96.80;;;;;;5011233;28;20252;-64
2023/12/12 14:33:18;;;;;;;1.57;1.20;;;11.10;97.30;;;;;;5009102;28;20189;-64
2023/12/12 14:35:43;;;;;;;4.67;2.93;;;10.90;97.30;;;;;;5010393;28;20255;-64
2023/12/12 14:38:09;;;;;;;4.00;1.27;;;10.70;97.30;;;;;;5008701;28;20195;-65
2023/12/12 14:40:35;;;;;;;6.50;1.90;;;10.50;97.30;;;;;;4993008;28;20201;-64
2023/12/12 14:43:02;;;;;;;1.00;0.90;;;10.10;97.30;;;;;;4992733;28;20427;-65
2023/12/12 14:45:28;;;;;;;2.43;1.83;;;9.70;97.30;;;;;;5005702;28;20545;-64
2023/12/12 14:47:53;;;;;;;1.30;1.20;;;9.50;97.30;;;;;;4992597;28;20448;-64
2023/12/12 14:50:19;;;;;;;1.70;1.60;;;9.30;97.30;;;;;;5009360;28;20290;-63
2023/12/12 14:52:44;;;;;;;1.50;1.40;;;9.10;97.30;;;;;;5010352;28;20216;-64
2023/12/12 14:55:10;;;;;;;1.33;1.23;;;9.00;97.30;;;;;;5008907;28;20672;-63
2023/12/12 14:57:36;;;;;;;1.77;1.50;;;8.80;97.30;;;;;;4991550;28;20607;-64
2023/12/12 15:00:01;;;;;;;2.03;1.90;;;8.70;97.30;;;;;;4992308;28;20742;-65
2023/12/12 15:02:28;;;;;;;1.20;1.10;;;8.60;97.30;;;;;;5004639;28;20205;-65
2023/12/12 15:04:54;;;;;;;2.20;1.30;;;8.50;97.30;;;;;;5010008;28;20493;-64
2023/12/12 15:07:19;;;;;;;1.10;1.00;;;8.50;97.30;;;;;;5010063;28;20506;-65
2023/12/12 15:09:45;;;;;;;4.67;1.90;;;8.40;97.30;;;;;;5008385;28;20181;-65
2023/12/12 15:12:10;;;;;;;1.73;1.50;;;8.30;97.30;;;;;;5025514;28;20668;-65
2023/12/12 15:14:36;;;;;;;1.10;1.00;;;8.30;97.30;;;;;;5009154;28;20596;-65
2023/12/12 15:17:01;;;;;;;3.57;2.40;;;8.20;97.30;;;;;;5004471;28;20178;-64
2023/12/12 15:19:27;;;;;;;12.00;2.10;;;8.10;97.30;;;;;;5010472;28;20187;-64
2023/12/12 15:21:52;;;;;;;3.20;3.00;;;8.10;97.30;;;;;;4985986;28;20244;-65
2023/12/12 15:24:18;;;;;;;2.50;1.40;;;8.00;97.30;;;;;;5010078;28;20174;-65
2023/12/12 15:26:44;;;;;;;2.87;2.20;;;8.00;97.30;;;;;;5009980;28;20212;-64
2023/12/12 15:29:10;;;;;;;1.10;1.00;;;8.00;97.30;;;;;;5009303;28;20760;-64
2023/12/12 15:31:36;;;;;;;8.33;1.77;;;8.00;97.30;;;;;;5009774;28;20535;-64
2023/12/12 15:34:01;;;;;;;1.40;1.30;;;8.00;97.30;;;;;;5010065;28;20615;-64
2023/12/12 15:36:27;;;;;;;1.40;1.30;;;8.10;97.30;;;;;;5009842;28;20230;-64
2023/12/12 15:38:53;;;;;;;2.83;1.53;;;8.10;97.30;;;;;;5010065;28;20200;-65
2023/12/12 15:41:19;;;;;;;5.57;3.33;;;8.10;97.30;;;;;;5009460;28;20470;-65
2023/12/12 15:43:44;;;;;;;2.50;2.23;;;8.10;97.30;;;;;;5009168;28;20483;-64
2023/12/12 15:46:10;;;;;;;1.70;1.60;;;8.10;97.30;;;;;;5009693;28;20217;-64
2023/12/12 15:48:35;;;;;;;3.40;3.20;;;8.10;97.30;;;;;;5009410;28;20288;-64
2023/12/12 15:51:01;;;;;;;2.40;2.20;;;8.10;97.30;;;;;;5009186;28;20201;-64
2023/12/12 15:53:26;;;;;;;4.30;2.37;;;8.10;97.30;;;;;;5009567;28;20226;-65
2023/12/12 15:55:52;;;;;;;3.43;2.90;;;8.10;97.30;;;;;;5009154;28;20389;-64
2023/12/12 15:58:19;;;;;;;2.27;2.07;;;8.20;97.30;;;;;;4991028;28;20188;-64
2023/12/12 16:00:44;;;;;;;4.10;2.20;;;8.20;97.30;;;;;;4991444;28;20597;-65
2023/12/12 16:03:10;;;;;;;2.47;2.07;;;8.20;97.30;;;;;;5008861;28;20463;-64
2023/12/12 16:05:35;;;;;;;2.60;1.97;;;8.20;97.30;;;;;;5008610;28;20204;-64
2023/12/12 16:08:01;;;;;;;3.37;2.13;;;8.20;97.30;;;;;;5008871;28;20653;-64
2023/12/12 16:10:26;;;;;;;1.30;1.20;;;8.20;97.30;;;;;;5007751;28;20224;-64
2023/12/12 16:12:52;;;;;;;1.57;1.37;;;8.20;97.30;;;;;;5008586;28;20181;-64
2023/12/12 16:15:18;;;;;;;1.97;1.50;;;8.20;97.30;;;;;;5008799;28;20563;-64
2023/12/12 16:17:44;;;;;;;2.23;2.03;;;8.10;97.30;;;;;;5008850;28;20225;-64
2023/12/12 16:20:10;;;;;;;2.40;2.20;;;8.00;97.30;;;;;;5008616;28;20188;-64
2023/12/12 16:22:36;;;;;;;5.70;2.60;;;8.00;97.30;;;;;;4987343;28;20436;-64
2023/12/12 16:25:03;;;;;;;2.13;1.97;;;8.00;97.30;;;;;;5006788;28;20205;-64
2023/12/12 16:27:29;;;;;;;5.53;2.60;;;8.00;97.30;;;;;;5008098;28;20284;-64
2023/12/12 16:29:54;;;;;;;2.47;2.27;;;8.00;97.30;;;;;;5007998;28;20933;-65
2023/12/12 16:32:20;;;;;;;6.60;1.60;;;7.90;97.30;;;;;;5014017;28;20201;-64
2023/12/12 16:34:46;;;;;;;2.10;1.80;;;7.90;97.30;;;;;;5008385;28;20177;-65
2023/12/12 16:37:12;;;;;;;3.53;1.40;;;7.80;97.30;;;;;;5004859;28;20776;-64
2023/12/12 16:39:38;;;;;;;2.10;1.37;;;7.80;97.30;;;;;;5008307;28;20451;-64
2023/12/12 16:42:10;;;;;;;8.80;2.80;;;7.80;97.30;;;;;;5007479;28;20595;-64
2023/12/12 16:44:36;;;;;;;1.40;1.30;;;7.80;97.30;;;;;;4998637;28;20185;-64
2023/12/12 16:47:01;;;;;;;1.60;1.50;;;7.70;97.30;;;;;;4990573;28;20802;-65
2023/12/12 16:49:27;;;;;;;48.63;4.57;;;7.70;97.30;;;;;;5006974;28;20185;-64
2023/12/12 16:51:53;;;;;;;1.93;1.70;;;7.70;97.30;;;;;;4990539;28;20204;-64
2023/12/12 16:54:19;;;;;;;1.70;1.60;;;7.80;97.30;;;;;;5006780;28;20484;-64
2023/12/12 16:56:45;;;;;;;1.67;1.57;;;7.80;97.30;;;;;;4990539;28;20181;-65
2023/12/12 16:59:10;;;;;;;1.60;1.50;;;7.80;97.30;;;;;;5007998;28;20604;-64
2023/12/12 17:01:36;;;;;;;3.90;1.87;;;7.80;97.30;;;;;;5006386;28;20747;-64
2023/12/12 17:04:04;;;;;;;1.10;1.00;;;7.80;97.30;;;;;;5008117;28;20185;-65
2023/12/12 17:06:30;;;;;;;3.30;2.17;;;7.80;97.30;;;;;;4990426;28;20224;-64
2023/12/12 17:08:55;;;;;;;2.73;1.67;;;7.80;97.30;;;;;;5006279;28;20420;-64
2023/12/12 17:11:21;;;;;;;1.40;1.30;;;7.70;97.30;;;;;;4990074;28;20205;-64
2023/12/12 17:13:47;;;;;;;5.20;2.87;;;7.80;97.30;;;;;;5007977;28;20558;-64
2023/12/12 17:16:12;;;;;;;6.00;2.30;;;7.80;97.30;;;;;;5007918;28;20203;-64
2023/12/12 17:18:38;;;;;;;6.93;3.80;;;7.80;97.30;;;;;;5008174;28;20515;-65
2023/12/12 17:21:05;;;;;;;1.60;1.50;;;7.80;97.30;;;;;;4990908;28;20659;-64
2023/12/12 17:23:31;;;;;;;1.70;1.30;;;7.80;97.30;;;;;;5006486;28;20197;-64
2023/12/12 17:25:57;;;;;;;1.80;1.53;;;7.70;97.30;;;;;;5010471;28;20562;-64
2023/12/12 17:28:22;;;;;;;2.40;2.10;;;7.70;97.30;;;;;;5008935;28;20519;-64
2023/12/12 17:30:48;;;;;;;1.67;1.57;;;7.70;97.30;;;;;;4992630;28;20328;-65
2023/12/12 17:33:13;;;;;;;5.63;3.47;;;7.70;97.30;;;;;;4989750;28;20468;-64
2023/12/12 17:35:39;;;;;;;5.07;2.07;;;7.70;97.30;;;;;;4986427;28;20197;-65
2023/12/12 17:38:04;;;;;;;2.33;1.83;;;7.80;97.30;;;;;;4987046;28;20182;-65
2023/12/12 17:40:30;;;;;;;3.07;2.87;;;7.80;97.30;;;;;;4988914;28;20201;-64
2023/12/12 17:42:55;;;;;;;1.23;1.13;;;7.80;97.30;;;;;;5005570;28;20182;-64
2023/12/12 17:45:21;;;;;;;1.47;1.37;;;7.80;97.30;;;;;;4989163;28;20237;-65
2023/12/12 17:47:47;;;;;;;4.10;1.93;;;7.80;97.30;;;;;;4989540;28;20677;-64
2023/12/12 17:50:14;;;;;;;1.70;1.37;;;7.80;97.30;;;;;;4991608;28;20182;-65